Time;durP1;ratioP1;P1;durP2;ratioP2;P2;SDS_P1;SDS_P2;PMS_P1;PMS_P2;Temp;Humidity;BMP_temperature;BMP_pressure;BME280_temperature;BME280_humidity;BME280_pressure;Samples;Min_cycle;Max_cycle;Signal;HPM_P1;HPM_P2
2023/05/19 00:01:12;;;;;;;5.82;3.83;;;;;;;12.91;100.00;100331.81;5032736;28;20051;-68
2023/05/19 00:03:43;;;;;;;10.98;3.90;;;;;;;12.72;100.00;100320.09;5032815;28;20037;-69
2023/05/19 00:06:09;;;;;;;8.30;3.80;;;;;;;12.59;100.00;100307.66;5014087;28;20041;-68
2023/05/19 00:08:37;;;;;;;6.95;3.72;;;;;;;12.66;100.00;100335.50;5032753;28;20569;-69
2023/05/19 00:11:02;;;;;;;8.30;3.45;;;;;;;12.64;100.00;100339.75;5032311;28;20022;-70
2023/05/19 00:13:28;;;;;;;5.63;3.88;;;;;;;12.72;100.00;100330.47;5032388;28;20083;-68
2023/05/19 00:15:54;;;;;;;11.65;4.40;;;;;;;12.69;100.00;100322.59;5032660;28;20103;-68
2023/05/19 00:18:19;;;;;;;8.15;3.53;;;;;;;12.67;100.00;100326.84;5032532;28;20475;-70
2023/05/19 00:20:45;;;;;;;8.60;3.78;;;;;;;12.62;100.00;100329.34;5032640;28;20100;-69
2023/05/19 00:23:11;;;;;;;7.07;3.78;;;;;;;12.53;100.00;100312.69;5032504;28;20042;-72
2023/05/19 00:25:36;;;;;;;6.30;3.63;;;;;;;12.19;100.00;100245.34;5032321;28;20017;-68
2023/05/19 00:28:01;;;;;;;6.95;4.10;;;;;;;12.12;100.00;100223.63;5032620;28;20032;-73
2023/05/19 00:30:28;;;;;;;6.47;4.32;;;;;;;12.71;100.00;100325.22;5030157;28;20072;-71
2023/05/19 00:32:54;;;;;;;6.63;4.10;;;;;;;12.20;100.00;100235.88;5032466;28;20094;-69
2023/05/19 00:35:20;;;;;;;8.95;3.90;;;;;;;12.72;100.00;100320.09;5032168;28;20427;-70
2023/05/19 00:37:45;;;;;;;9.50;4.20;;;;;;;12.80;100.00;100322.88;5031984;28;20129;-71
2023/05/19 00:40:11;;;;;;;7.07;4.32;;;;;;;12.14;100.00;100224.53;5030422;28;20025;-70
2023/05/19 00:42:37;;;;;;;6.50;4.18;;;;;;;12.79;100.00;100328.91;5032043;28;20021;-71
2023/05/19 00:45:03;;;;;;;6.03;3.65;;;;;;;12.61;100.00;100301.69;5031906;28;20489;-70
2023/05/19 00:47:29;;;;;;;6.65;3.97;;;;;;;11.80;100.00;100179.63;5030972;28;20127;-71
2023/05/19 00:49:55;;;;;;;6.65;3.88;;;;;;;12.54;100.00;100312.72;5031604;28;20104;-70
2023/05/19 00:52:20;;;;;;;5.32;3.53;;;;;;;12.42;100.00;100294.28;5031304;28;20499;-69
2023/05/19 00:54:46;;;;;;;6.50;3.80;;;;;;;12.48;100.00;100307.38;5031399;28;20034;-69
2023/05/19 00:57:13;;;;;;;5.88;3.90;;;;;;;12.52;100.00;100310.94;5031623;28;20029;-70
2023/05/19 00:59:39;;;;;;;5.68;3.75;;;;;;;12.36;100.00;100302.78;5031732;28;20036;-69
2023/05/19 01:02:04;;;;;;;9.10;3.83;;;;;;;12.47;100.00;100321.16;5031805;28;20037;-69
2023/05/19 01:04:33;;;;;;;9.73;4.00;;;;;;;12.45;100.00;100315.94;5031718;28;20472;-69
2023/05/19 01:06:59;;;;;;;8.32;3.92;;;;;;;12.50;100.00;100317.78;5030687;28;20026;-68
2023/05/19 01:09:25;;;;;;;7.47;4.28;;;;;;;12.48;100.00;100299.63;5031339;28;20468;-69
2023/05/19 01:15:13;;;;;;;6.18;3.22;;;;;;;12.26;100.00;100282.63;5037167;23;20611;-71
2023/05/19 01:17:53;;;;;;;17.35;4.60;;;;;;;12.38;100.00;100313.16;4993030;28;20073;-70
2023/05/19 01:20:24;;;;;;;7.53;4.05;;;;;;;11.69;100.00;100218.94;4991556;28;20046;-73
2023/05/19 01:23:16;;;;;;;5.80;3.60;;;;;;;12.25;100.00;100323.16;4992120;28;20035;-70
2023/05/19 01:26:01;;;;;;;8.20;4.07;;;;;;;12.25;100.00;100322.28;4992397;28;20034;-70
2023/05/19 01:28:44;;;;;;;5.75;3.67;;;;;;;12.27;100.00;100325.78;4992286;28;20520;-70
2023/05/19 01:31:11;;;;;;;7.53;3.75;;;;;;;12.18;100.00;100321.25;4992514;28;20092;-70
2023/05/19 01:33:38;;;;;;;7.05;3.97;;;;;;;12.08;100.00;100307.16;4992425;28;20026;-69
2023/05/19 01:36:08;;;;;;;5.22;3.22;;;;;;;11.59;100.00;100228.13;4992650;28;20053;-70
2023/05/19 01:41:37;;;;;;;4.68;3.17;;;;;;;12.17;100.00;100336.72;5090934;23;19971;-69
2023/05/19 01:44:03;;;;;;;8.07;3.72;;;;;;;12.16;100.00;100329.81;5011697;28;20480;-71
2023/05/19 01:46:29;;;;;;;7.28;3.60;;;;;;;11.75;100.00;100256.19;5012083;28;20099;-73
2023/05/19 01:48:55;;;;;;;5.05;3.60;;;;;;;12.26;100.00;100324.94;5077817;23;20017;-70
2023/05/19 01:51:20;;;;;;;5.45;3.78;;;;;;;12.21;100.00;100320.44;5011909;28;20044;-70
2023/05/19 01:53:45;;;;;;;6.75;3.65;;;;;;;12.20;100.00;100318.69;5011368;28;20033;-70
2023/05/19 01:59:50;;;;;;;6.60;3.67;;;;;;;11.97;100.00;100285.28;5022440;23;20456;-69
2023/05/19 02:02:34;;;;;;;7.72;3.75;;;;;;;12.10;100.00;100328.78;5011315;28;20451;-69
2023/05/19 02:05:13;;;;;;;15.98;4.45;;;;;;;12.12;100.00;100331.41;5011562;28;20030;-69
2023/05/19 02:07:53;;;;;;;6.07;3.75;;;;;;;12.17;100.00;100328.97;5011275;28;20109;-68
2023/05/19 02:10:25;;;;;;;4.93;3.63;;;;;;;12.18;100.00;100325.56;5011391;28;20474;-71
2023/05/19 02:12:52;;;;;;;6.35;4.18;;;;;;;11.76;100.00;100262.25;5011137;28;20041;-69
2023/05/19 02:15:25;;;;;;;8.48;3.92;;;;;;;12.05;100.00;100311.38;5011218;28;20462;-69
2023/05/19 02:17:54;;;;;;;6.90;4.30;;;;;;;12.06;100.00;100314.03;5041717;28;20065;-69
2023/05/19 02:20:23;;;;;;;5.38;3.72;;;;;;;12.07;100.00;100323.50;5011020;28;20038;-69
2023/05/19 02:22:49;;;;;;;6.70;4.13;;;;;;;12.09;100.00;100326.16;5011301;28;20037;-69
2023/05/19 02:25:14;;;;;;;7.35;3.70;;;;;;;12.05;100.00;100314.84;5011185;28;20034;-70
2023/05/19 02:27:40;;;;;;;8.90;3.85;;;;;;;11.72;100.00;100260.41;5025361;28;20096;-69
2023/05/19 02:30:07;;;;;;;7.10;4.40;;;;;;;12.15;100.00;100341.88;5011022;28;20102;-70
2023/05/19 02:32:33;;;;;;;6.57;3.95;;;;;;;12.24;100.00;100336.09;5010933;28;20091;-73
2023/05/19 02:34:59;;;;;;;8.40;4.53;;;;;;;12.07;100.00;100323.50;5010882;28;20029;-69
2023/05/19 02:37:27;;;;;;;5.88;3.35;;;;;;;12.11;100.00;100346.09;5010668;28;20021;-69
2023/05/19 02:39:53;;;;;;;7.03;4.40;;;;;;;12.21;100.00;100346.31;5009515;28;20026;-69
2023/05/19 02:42:19;;;;;;;12.60;4.60;;;;;;;12.04;100.00;100335.53;5009317;28;20526;-69
2023/05/19 02:44:45;;;;;;;7.40;4.30;;;;;;;12.03;100.00;100331.16;5010556;28;20104;-70
2023/05/19 02:47:10;;;;;;;7.55;4.38;;;;;;;12.14;100.00;100347.88;5010328;28;20201;-71
2023/05/19 02:49:36;;;;;;;5.53;4.07;;;;;;;12.12;100.00;100353.03;5010687;28;20033;-69
2023/05/19 02:52:03;;;;;;;7.30;4.57;;;;;;;12.20;100.00;100355.81;5010379;28;20030;-69
2023/05/19 02:54:33;;;;;;;9.13;4.68;;;;;;;12.16;100.00;100358.25;5010556;28;20038;-70
2023/05/19 02:56:58;;;;;;;7.70;4.88;;;;;;;12.14;100.00;100359.09;5010454;28;20117;-69
2023/05/19 02:59:24;;;;;;;12.45;5.50;;;;;;;11.81;100.00;100305.53;5010346;28;20058;-68
2023/05/19 03:01:54;;;;;;;7.63;4.75;;;;;;;12.06;100.00;100346.78;5010349;28;20026;-70
2023/05/19 03:04:19;;;;;;;7.72;4.80;;;;;;;11.85;100.00;100300.41;5008553;28;20052;-69
2023/05/19 03:06:45;;;;;;;8.63;4.97;;;;;;;12.21;100.00;100360.16;5010643;28;20034;-69
2023/05/19 03:09:12;;;;;;;6.68;4.63;;;;;;;11.88;100.00;100305.69;5010446;28;20551;-70
2023/05/19 03:11:38;;;;;;;9.30;4.50;;;;;;;12.14;100.00;100359.09;5010542;28;20030;-70
2023/05/19 03:14:05;;;;;;;8.43;4.80;;;;;;;12.23;100.00;100370.56;5010523;28;20041;-69
2023/05/19 03:16:31;;;;;;;11.40;5.50;;;;;;;12.22;100.00;100377.44;5008817;28;20062;-69
2023/05/19 03:18:57;;;;;;;7.00;5.07;;;;;;;12.15;100.00;100357.41;5010243;28;20026;-69
2023/05/19 03:21:22;;;;;;;10.07;5.45;;;;;;;12.25;100.00;100376.63;5010166;28;20423;-68
2023/05/19 03:23:48;;;;;;;6.90;4.70;;;;;;;12.36;100.00;100382.13;5010463;28;20104;-70
2023/05/19 03:26:13;;;;;;;6.25;4.80;;;;;;;12.42;100.00;100396.13;5010345;28;20026;-72
2023/05/19 03:28:38;;;;;;;7.13;4.95;;;;;;;12.44;100.00;100399.63;5010446;28;20571;-69
2023/05/19 03:31:04;;;;;;;9.52;5.30;;;;;;;12.46;100.00;100390.19;5011438;28;20045;-70
2023/05/19 03:33:30;;;;;;;9.35;5.32;;;;;;;12.55;100.00;100396.47;5014236;28;20068;-71
2023/05/19 03:35:56;;;;;;;8.65;5.40;;;;;;;12.40;100.00;100399.50;5011674;28;20041;-72
2023/05/19 03:38:21;;;;;;;6.47;4.88;;;;;;;12.48;100.00;100413.53;5013354;28;20038;-71
2023/05/19 03:40:47;;;;;;;8.23;5.00;;;;;;;12.48;100.00;100418.72;5009752;28;20459;-71
2023/05/19 03:43:13;;;;;;;8.00;5.40;;;;;;;12.57;100.00;100424.19;5013366;28;20084;-70
2023/05/19 03:45:38;;;;;;;8.88;4.65;;;;;;;12.62;100.00;100417.41;5012939;28;20018;-72
2023/05/19 03:48:04;;;;;;;9.07;5.53;;;;;;;12.70;100.00;100420.19;5013440;28;20037;-71
2023/05/19 03:50:30;;;;;;;12.60;5.38;;;;;;;12.70;100.00;100420.19;5013358;28;20080;-70
2023/05/19 03:52:56;;;;;;;11.35;5.20;;;;;;;12.10;100.00;100336.56;5013369;28;20475;-70
2023/05/19 03:55:22;;;;;;;7.00;5.00;;;;;;;12.67;100.00;100420.09;5013421;28;20030;-71
2023/05/19 03:57:48;;;;;;;7.15;5.28;;;;;;;12.69;100.00;100418.44;5010800;28;20062;-68
2023/05/19 04:00:14;;;;;;;7.95;5.18;;;;;;;12.74;100.00;100419.44;5012799;28;20458;-73
2023/05/19 04:02:41;;;;;;;8.82;5.57;;;;;;;12.66;100.00;100402.84;5012049;28;20484;-69
2023/05/19 04:05:07;;;;;;;8.77;5.80;;;;;;;12.86;100.00;100428.38;5012579;28;20045;-70
2023/05/19 04:07:33;;;;;;;8.32;5.38;;;;;;;12.97;100.00;100423.50;5012333;28;20061;-71
2023/05/19 04:09:58;;;;;;;10.98;5.07;;;;;;;12.60;100.00;100367.28;5012593;28;20415;-69
2023/05/19 04:12:23;;;;;;;7.72;5.50;;;;;;;13.08;100.00;100422.94;5013413;28;20034;-72
2023/05/19 04:14:49;;;;;;;10.13;5.70;;;;;;;13.10;100.00;100407.44;5007637;28;20029;-73
2023/05/19 04:17:14;;;;;;;5.70;4.75;;;;;;;13.26;100.00;100426.84;4994727;28;20034;-73
2023/05/19 04:19:40;;;;;;;7.75;5.13;;;;;;;13.30;100.00;100426.06;5015704;28;20041;-73
2023/05/19 04:22:05;;;;;;;7.88;5.50;;;;;;;13.31;100.00;100417.47;5029998;28;20459;-70
2023/05/19 04:24:32;;;;;;;11.25;5.35;;;;;;;13.33;100.00;100423.53;5029215;28;20045;-69
2023/05/19 04:27:01;;;;;;;8.18;5.20;;;;;;;13.14;100.00;100372.97;5030401;28;20587;-70
2023/05/19 04:29:28;;;;;;;7.43;4.90;;;;;;;13.38;100.00;100406.44;5030402;28;20046;-73
2023/05/19 04:31:54;;;;;;;9.68;4.97;;;;;;;13.16;100.00;100363.53;5030572;28;20049;-69
2023/05/19 04:34:19;;;;;;;6.70;5.78;;;;;;;13.60;100.00;100422.50;5030482;28;20527;-69
2023/05/19 04:36:44;;;;;;;9.55;5.45;;;;;;;13.54;100.00;100397.28;5030674;28;20132;-69
2023/05/19 04:39:11;;;;;;;9.75;5.68;;;;;;;13.84;100.00;100431.72;5030403;28;20121;-68
2023/05/19 04:41:39;;;;;;;11.90;5.97;;;;;;;13.92;100.00;100424.97;5030189;28;20588;-70
2023/05/19 04:44:06;;;;;;;9.18;5.28;;;;;;;13.90;100.00;100418.88;5030064;28;20112;-69
2023/05/19 04:46:32;;;;;;;10.18;5.85;;;;;;;13.99;100.00;100429.44;5046401;28;20472;-69
2023/05/19 04:49:00;;;;;;;10.35;5.60;;;;;;;14.01;100.00;100435.56;5030172;28;20108;-71
2023/05/19 04:51:30;;;;;;;10.75;5.40;;;;;;;14.02;100.00;100437.31;5015942;28;20052;-69
2023/05/19 04:53:56;;;;;;;9.75;5.63;;;;;;;13.96;100.00;100446.69;5027163;28;20500;-69
2023/05/19 04:56:22;;;;;;;9.05;6.00;;;;;;;13.98;100.00;100445.88;5009968;28;20405;-74
2023/05/19 04:58:49;;;;;;;8.05;5.40;;;;;;;14.02;100.00;100450.28;5010717;28;20080;-69
2023/05/19 05:01:39;;;;;;;9.63;6.00;;;;;;;13.98;100.00;100445.88;5009887;28;20046;-69
2023/05/19 05:04:05;;;;;;;9.00;5.25;;;;;;;14.01;100.00;100455.47;5009332;28;20133;-66
2023/05/19 05:06:31;;;;;;;7.38;5.85;;;;;;;13.99;100.00;100454.53;5009683;28;20048;-68
2023/05/19 05:08:56;;;;;;;7.20;5.43;;;;;;;13.94;100.00;100462.22;5009034;28;20044;-69
2023/05/19 05:11:22;;;;;;;8.25;5.47;;;;;;;13.58;100.00;100391.34;5009569;28;20057;-69
2023/05/19 05:13:47;;;;;;;8.30;5.90;;;;;;;14.03;100.00;100470.22;5009405;28;20029;-71
2023/05/19 05:16:13;;;;;;;7.07;5.32;;;;;;;14.05;100.00;100463.31;4992725;28;20072;-69
2023/05/19 05:18:39;;;;;;;11.95;6.15;;;;;;;13.95;100.00;100444.94;5009073;28;20037;-71
2023/05/19 05:21:06;;;;;;;7.28;5.95;;;;;;;14.08;100.00;100455.63;5009420;28;20080;-69
2023/05/19 05:23:32;;;;;;;9.07;5.60;;;;;;;14.26;100.00;100466.41;5008775;28;20124;-67
2023/05/19 05:25:57;;;;;;;9.38;5.80;;;;;;;14.34;100.00;100464.81;4992969;28;20148;-69
2023/05/19 05:28:23;;;;;;;10.35;6.55;;;;;;;14.44;100.00;100471.09;5009232;28;20503;-70
2023/05/19 05:30:49;;;;;;;10.07;6.05;;;;;;;14.52;100.00;100478.19;5009122;28;20092;-69
2023/05/19 05:33:16;;;;;;;10.70;6.05;;;;;;;14.57;100.00;100473.97;5009189;28;20034;-67
2023/05/19 05:35:42;;;;;;;8.85;6.15;;;;;;;14.65;100.00;100474.16;5011024;28;20030;-69
2023/05/19 05:38:10;;;;;;;9.30;6.30;;;;;;;14.70;100.00;100485.53;5010470;28;20022;-67
2023/05/19 05:40:35;;;;;;;10.40;5.68;;;;;;;14.81;100.00;100485.72;5012047;28;20030;-69
2023/05/19 05:43:01;;;;;;;8.63;6.10;;;;;;;14.90;100.00;100495.44;5012022;28;20030;-68
2023/05/19 05:45:27;;;;;;;12.05;6.68;;;;;;;14.96;100.00;100490.34;5011760;28;20021;-70
2023/05/19 05:47:52;;;;;;;8.60;5.70;;;;;;;15.03;100.00;100492.22;5026957;28;20472;-68
2023/05/19 05:50:18;;;;;;;9.35;6.05;;;;;;;15.08;100.00;100491.44;5011752;28;20040;-68
2023/05/19 05:52:46;;;;;;;9.60;6.95;;;;;;;15.15;100.00;100493.31;5011048;28;20103;-68
2023/05/19 05:55:12;;;;;;;10.07;7.07;;;;;;;15.31;100.00;100495.34;5011429;28;20095;-69
2023/05/19 05:57:40;;;;;;;10.15;7.13;;;;;;;15.47;100.00;100498.22;5011504;28;20108;-74
2023/05/19 06:00:14;;;;;;;8.95;7.03;;;;;;;15.22;100.00;100432.75;5009391;28;20042;-74
2023/05/19 06:02:46;;;;;;;11.85;7.38;;;;;;;15.93;100.00;100506.81;5011687;28;20029;-68
2023/05/19 06:05:12;;;;;;;14.25;8.00;;;;;;;16.08;100.00;100489.69;5011291;28;20551;-70
2023/05/19 06:07:39;;;;;;;10.00;7.03;;;;;;;16.24;100.00;100507.28;5011391;28;20471;-70
2023/05/19 06:10:05;;;;;;;9.63;6.68;;;;;;;16.32;100.00;100504.78;5011573;28;20110;-69
2023/05/19 06:12:31;;;;;;;11.32;6.30;;;;;;;16.16;100.00;100508.88;5042308;28;20121;-69
2023/05/19 06:14:56;;;;;;;10.73;6.25;;;;;;;16.13;100.00;100514.94;5011275;28;20128;-71
2023/05/19 06:17:22;;;;;;;8.90;6.60;;;;;;;16.19;100.00;100508.94;5011253;28;20026;-70
2023/05/19 06:19:47;;;;;;;10.18;6.18;;;;;;;16.16;100.00;100509.78;5010989;28;20038;-70
2023/05/19 06:22:12;;;;;;;14.52;6.65;;;;;;;16.13;100.00;100516.66;5011354;28;20038;-69
2023/05/19 06:24:38;;;;;;;8.85;6.50;;;;;;;16.09;100.00;100512.28;5011245;28;20034;-70
2023/05/19 06:27:04;;;;;;;10.65;6.38;;;;;;;15.70;100.00;100451.75;5011044;28;20097;-73
2023/05/19 06:29:29;;;;;;;13.57;7.22;;;;;;;16.14;100.00;100505.41;5011125;28;20033;-69
2023/05/19 06:31:56;;;;;;;8.77;6.65;;;;;;;16.45;100.00;100517.13;5010993;28;20542;-70
2023/05/19 06:34:21;;;;;;;9.60;7.05;;;;;;;16.48;100.00;100516.28;5010722;28;20064;-70
2023/05/19 06:36:47;;;;;;;14.70;7.05;;;;;;;16.33;100.00;100463.09;5010941;28;20033;-70
2023/05/19 06:39:12;;;;;;;8.95;6.30;;;;;;;16.81;100.00;100526.28;5010875;28;20033;-69
2023/05/19 06:41:38;;;;;;;12.45;6.93;;;;;;;16.91;100.00;100524.69;5010870;28;20500;-69
2023/05/19 06:44:07;;;;;;;11.20;7.07;;;;;;;17.13;100.00;100532.75;5010935;28;20236;-70
2023/05/19 06:46:33;;;;;;;9.80;7.32;;;;;;;17.12;100.00;100512.72;5010870;28;20476;-75
2023/05/19 06:48:58;;;;;;;11.90;7.07;;;;;;;17.13;100.00;100532.75;5010608;28;20045;-69
2023/05/19 06:51:24;;;;;;;10.23;6.85;;;;;;;17.09;100.00;100505.75;5010903;28;20535;-70
2023/05/19 06:53:49;;;;;;;11.88;7.32;;;;;;;17.29;100.00;100531.19;5010682;28;20408;-70
2023/05/19 06:56:15;;;;;;;9.13;6.97;;;;;;;17.38;100.00;100530.41;5010848;28;20026;-69
2023/05/19 06:58:41;;;;;;;12.98;7.22;;;;;;;17.23;100.00;100490.22;5025610;28;20493;-69
2023/05/19 07:01:06;;;;;;;9.02;6.18;;;;;;;17.45;100.00;100527.00;5010686;28;20018;-72
2023/05/19 07:03:32;;;;;;;12.18;6.95;;;;;;;17.55;100.00;100528.81;5010538;28;20042;-70
2023/05/19 07:05:57;;;;;;;11.57;7.00;;;;;;;17.65;100.00;100523.69;5012728;28;20029;-69
2023/05/19 07:08:23;;;;;;;10.45;7.10;;;;;;;17.72;100.00;100521.16;5014804;28;20468;-69
2023/05/19 07:10:48;;;;;;;9.93;7.13;;;;;;;17.47;100.00;100452.22;5014622;28;20463;-70
2023/05/19 07:13:14;;;;;;;10.88;7.63;;;;;;;17.90;100.00;100520.41;5014535;28;20034;-69
2023/05/19 07:15:39;;;;;;;14.35;7.70;;;;;;;17.95;100.00;100520.47;5014530;28;20076;-69
2023/05/19 07:18:05;;;;;;;13.20;8.95;;;;;;;18.16;100.00;100514.53;5014227;28;20480;-72
2023/05/19 07:20:30;;;;;;;12.93;9.50;;;;;;;18.31;100.00;100526.81;5014975;28;20080;-72
2023/05/19 07:22:55;;;;;;;13.65;9.82;;;;;;;18.43;100.00;100515.56;5014502;28;20096;-73
2023/05/19 07:25:21;;;;;;;13.20;9.50;;;;;;;18.55;100.00;100523.44;5014353;28;20476;-69
2023/05/19 07:27:46;;;;;;;13.95;9.80;;;;;;;18.69;100.00;100522.66;5014438;28;20037;-70
2023/05/19 07:30:12;;;;;;;13.15;9.18;;;;;;;18.84;100.00;100522.72;5014318;28;20018;-68
2023/05/19 07:32:38;;;;;;;13.15;9.90;;;;;;;19.00;100.00;100517.56;5014089;28;20026;-69
2023/05/19 07:35:04;;;;;;;13.38;9.55;;;;;;;18.36;100.00;100406.63;5014153;28;20030;-71
2023/05/19 07:37:30;;;;;;;16.90;9.80;;;;;;;19.15;100.00;100521.97;5014037;28;20117;-72
2023/05/19 07:39:57;;;;;;;13.48;10.02;;;;;;;19.17;100.00;100517.63;5014112;28;20101;-72
2023/05/19 07:42:25;;;;;;;13.95;9.48;;;;;;;19.39;100.00;100519.41;5012799;28;20038;-68
2023/05/19 07:44:50;;;;;;;16.48;9.82;;;;;;;19.34;100.00;100515.91;5013999;28;20084;-70
2023/05/19 07:47:16;;;;;;;13.48;9.63;;;;;;;19.49;100.00;100522.03;5012603;28;20030;-71
2023/05/19 07:49:41;;;;;;;16.08;11.13;;;;;;;19.14;100.00;100453.06;5014029;28;20022;-74
2023/05/19 07:52:07;;;;;;;15.88;9.55;;;;;;;19.53;100.00;100522.03;5013757;28;20067;-68
2023/05/19 07:54:32;;;;;;;11.98;9.23;;;;;;;19.50;100.00;100532.53;5013994;28;20516;-68
2023/05/19 07:56:57;;;;;;;15.73;10.52;;;;;;;19.31;100.00;100494.09;5013830;28;20018;-69
2023/05/19 07:59:23;;;;;;;13.63;10.75;;;;;;;19.51;100.00;100512.44;5014030;28;20045;-73
2023/05/19 08:01:50;;;;;;;14.48;9.75;;;;;;;19.11;100.00;100465.28;5013564;28;20396;-69
2023/05/19 08:04:15;;;;;;;12.95;10.25;;;;;;;19.52;100.00;100525.53;5013853;28;20048;-69
2023/05/19 08:06:43;;;;;;;15.30;10.38;;;;;;;19.59;100.00;100530.75;5013711;28;20030;-69
2023/05/19 08:09:08;;;;;;;15.25;10.20;;;;;;;19.65;100.00;100515.06;5013522;28;20036;-75
2023/05/19 08:11:34;;;;;;;14.40;9.13;;;;;;;19.60;100.00;100491.50;5028668;28;20034;-72
2023/05/19 08:13:59;;;;;;;15.73;10.30;;;;;;;19.92;100.00;100531.69;5013390;28;20385;-69
2023/05/19 08:16:25;;;;;;;13.20;9.70;;;;;;;19.98;100.00;100535.16;5012611;28;20021;-69
2023/05/19 08:18:51;;;;;;;14.15;9.77;;;;;;;20.01;100.00;100527.31;5013464;28;20034;-69
2023/05/19 08:21:16;;;;;;;12.93;10.27;;;;;;;20.12;100.00;100535.16;5013398;28;20042;-69
2023/05/19 08:23:41;;;;;;;13.60;10.25;;;;;;;20.16;100.00;100539.53;5013316;28;20404;-71
2023/05/19 08:26:07;;;;;;;14.65;10.57;;;;;;;19.89;100.00;100472.31;5013078;28;20038;-72
2023/05/19 08:28:32;;;;;;;16.77;9.73;;;;;;;20.24;99.69;100521.16;5013107;28;20033;-70
2023/05/19 08:30:58;;;;;;;12.32;9.48;;;;;;;20.26;100.00;100522.03;5028006;28;20061;-71
2023/05/19 08:33:23;;;;;;;13.43;9.32;;;;;;;20.40;100.00;100519.38;5013223;28;20480;-69
2023/05/19 08:35:48;;;;;;;13.85;9.68;;;;;;;20.43;100.00;100514.09;5013193;28;20076;-70
2023/05/19 08:38:14;;;;;;;12.93;9.52;;;;;;;20.65;100.00;100535.91;5013113;28;20029;-68
2023/05/19 08:40:46;;;;;;;15.60;9.77;;;;;;;20.73;100.00;100532.41;5012920;28;20034;-70
2023/05/19 08:43:11;;;;;;;16.15;9.95;;;;;;;20.60;100.00;100498.31;5012873;28;20088;-70
2023/05/19 08:45:45;;;;;;;15.80;10.30;;;;;;;20.95;100.00;100533.19;5012649;28;20061;-68
2023/05/19 08:48:12;;;;;;;10.63;8.50;;;;;;;21.07;96.37;100537.50;5012788;28;20381;-67
2023/05/19 08:50:40;;;;;;;10.32;9.07;;;;;;;21.07;100.00;100501.63;5012969;28;20026;-70
2023/05/19 08:53:26;;;;;;;13.40;9.80;;;;;;;21.37;100.00;100532.94;5012723;28;20389;-71
2023/05/19 08:55:52;;;;;;;14.40;8.95;;;;;;;21.40;94.35;100543.44;5012729;28;20029;-71
2023/05/19 08:58:19;;;;;;;12.98;9.13;;;;;;;21.54;97.26;100538.94;5012340;28;20471;-71
2023/05/19 09:00:46;;;;;;;11.48;9.15;;;;;;;21.57;96.99;100512.72;5012715;28;20092;-71
2023/05/19 09:03:12;;;;;;;12.32;9.10;;;;;;;21.85;97.29;100537.88;5011290;28;20025;-72
2023/05/19 09:05:38;;;;;;;13.55;8.88;;;;;;;22.06;96.89;100552.59;5012659;28;20026;-70
2023/05/19 09:08:03;;;;;;;13.82;9.05;;;;;;;22.07;91.48;100505.25;5012443;28;20029;-70
2023/05/19 09:10:29;;;;;;;12.07;8.68;;;;;;;22.30;93.21;100527.81;5012204;28;20583;-70
2023/05/19 09:12:54;;;;;;;14.75;9.00;;;;;;;22.34;96.51;100526.00;5012223;28;20084;-71
2023/05/19 09:15:24;;;;;;;10.52;8.02;;;;;;;22.19;90.74;100475.31;5012445;28;20041;-71
2023/05/19 09:17:50;;;;;;;11.57;7.65;;;;;;;22.52;88.83;100522.31;5011839;28;20042;-71
2023/05/19 09:20:16;;;;;;;13.90;8.60;;;;;;;22.57;91.84;100518.75;5012008;28;20411;-71
2023/05/19 09:22:46;;;;;;;13.20;8.13;;;;;;;22.67;89.17;100524.78;5011951;28;20109;-70
2023/05/19 09:25:21;;;;;;;11.80;8.77;;;;;;;22.77;90.02;100518.50;5026745;28;20424;-73
2023/05/19 09:27:48;;;;;;;11.05;8.02;;;;;;;22.87;89.25;100521.91;5022519;28;20048;-70
2023/05/19 09:30:15;;;;;;;12.70;8.60;;;;;;;22.96;90.47;100520.03;5011727;28;20042;-70
2023/05/19 09:32:41;;;;;;;11.38;8.20;;;;;;;22.53;90.62;100447.78;5026529;28;20065;-70
2023/05/19 09:35:07;;;;;;;12.13;8.50;;;;;;;22.98;89.06;100523.50;5011611;28;20084;-74
2023/05/19 09:37:33;;;;;;;11.60;8.43;;;;;;;23.00;89.63;100509.44;5010815;28;20512;-71
2023/05/19 09:39:58;;;;;;;11.95;8.80;;;;;;;23.18;88.80;100518.00;5011035;28;20022;-70
2023/05/19 09:42:25;;;;;;;11.55;7.93;;;;;;;22.90;88.99;100473.59;5011344;28;20026;-71
2023/05/19 09:45:01;;;;;;;11.43;8.45;;;;;;;23.22;90.61;100517.06;5011392;28;20069;-71
2023/05/19 09:47:32;;;;;;;17.60;8.80;;;;;;;22.83;88.37;100454.41;5009438;28;20064;-74
2023/05/19 09:49:57;;;;;;;11.77;7.80;;;;;;;23.07;87.72;100526.03;5010976;28;20032;-70
2023/05/19 09:52:23;;;;;;;10.80;7.85;;;;;;;22.34;88.30;100463.75;5000564;28;20407;-70
2023/05/19 09:54:50;;;;;;;13.32;8.73;;;;;;;22.58;88.94;100514.34;5008553;28;20046;-70
2023/05/19 09:57:16;;;;;;;10.65;8.25;;;;;;;22.43;89.83;100507.50;5010952;28;20034;-73
2023/05/19 09:59:42;;;;;;;13.80;8.85;;;;;;;22.66;90.32;100514.28;5011952;28;20401;-70
2023/05/19 10:02:14;;;;;;;15.60;8.70;;;;;;;22.70;90.57;100505.44;5009531;28;20496;-70
2023/05/19 10:04:41;;;;;;;12.85;7.97;;;;;;;22.24;86.59;100443.72;5010507;28;20029;-73
2023/05/19 10:07:08;;;;;;;10.85;8.30;;;;;;;22.29;88.73;100497.13;5010968;28;20105;-73
2023/05/19 10:09:35;;;;;;;11.80;7.78;;;;;;;21.99;91.62;100478.16;5010605;28;20061;-71
2023/05/19 10:12:02;;;;;;;11.05;8.50;;;;;;;22.11;88.68;100511.34;5011301;28;20029;-71
2023/05/19 10:14:28;;;;;;;12.68;8.88;;;;;;;22.08;90.76;100514.00;5011122;28;20060;-71
2023/05/19 10:16:57;;;;;;;12.68;8.10;;;;;;;21.82;88.99;100491.47;5009302;28;20088;-71
2023/05/19 10:19:27;;;;;;;14.80;8.07;;;;;;;21.67;91.29;100455.72;5009240;28;20630;-70
2023/05/19 10:21:53;;;;;;;12.75;8.80;;;;;;;22.27;91.30;100515.56;5008111;28;20065;-73
2023/05/19 10:24:20;;;;;;;12.18;7.97;;;;;;;22.46;88.55;100500.47;5010753;28;20100;-73
2023/05/19 10:27:06;;;;;;;10.75;7.97;;;;;;;22.52;89.92;100499.53;5011103;28;20022;-70
2023/05/19 10:29:36;;;;;;;14.30;7.97;;;;;;;22.53;87.12;100505.66;5011037;28;20033;-71
2023/05/19 10:32:09;;;;;;;10.65;7.45;;;;;;;22.41;87.98;100512.81;5010688;28;20056;-71
2023/05/19 10:35:15;;;;;;;13.00;8.20;;;;;;;22.45;88.54;100511.00;5010851;28;20033;-70
2023/05/19 10:37:59;;;;;;;11.75;7.65;;;;;;;22.66;86.31;100509.88;5010963;28;20408;-70
2023/05/19 10:40:37;;;;;;;12.25;7.70;;;;;;;22.81;86.55;100506.19;5010760;28;20216;-71
2023/05/19 10:43:21;;;;;;;12.43;7.37;;;;;;;22.80;85.81;100503.56;5011050;28;20099;-70
2023/05/19 10:45:48;;;;;;;13.32;7.85;;;;;;;22.81;82.40;100508.81;5010869;28;20273;-71
2023/05/19 10:48:19;;;;;;;11.43;7.75;;;;;;;22.57;79.85;100445.09;5010812;28;20029;-71
2023/05/19 10:50:51;;;;;;;10.90;7.40;;;;;;;22.96;84.33;100499.84;5010640;28;20038;-71
2023/05/19 10:53:19;;;;;;;10.05;7.40;;;;;;;22.58;80.28;100443.31;5010908;28;20026;-71
2023/05/19 10:55:49;;;;;;;11.90;6.85;;;;;;;22.89;79.50;100511.34;5009744;28;20117;-71
2023/05/19 10:58:14;;;;;;;11.30;7.97;;;;;;;22.61;79.08;100470.47;5010924;28;20173;-70
2023/05/19 11:00:43;;;;;;;10.38;7.35;;;;;;;22.98;74.17;100490.16;5010727;28;20578;-71
2023/05/19 11:03:16;;;;;;;12.10;8.23;;;;;;;23.38;79.87;100489.59;5010452;28;20504;-71
2023/05/19 11:05:44;;;;;;;11.25;7.97;;;;;;;23.60;78.52;100465.53;5010825;28;20045;-70
2023/05/19 11:08:10;;;;;;;14.05;8.10;;;;;;;23.70;74.42;100477.66;5010551;28;20484;-75
2023/05/19 11:10:36;;;;;;;12.65;7.85;;;;;;;23.85;73.77;100471.25;5010543;28;20026;-71
2023/05/19 11:13:03;;;;;;;9.88;7.65;;;;;;;24.10;75.83;100462.91;5010608;28;20045;-71
2023/05/19 11:15:33;;;;;;;11.05;7.93;;;;;;;24.17;65.92;100468.94;5010387;28;20022;-70
2023/05/19 11:18:00;;;;;;;12.18;7.93;;;;;;;24.04;68.37;100428.75;5010607;28;20030;-71
2023/05/19 11:20:27;;;;;;;12.07;8.35;;;;;;;24.25;66.60;100461.75;5010676;28;20033;-70
2023/05/19 11:23:06;;;;;;;11.80;8.30;;;;;;;24.08;71.29;100464.69;5009420;28;20084;-71
2023/05/19 11:25:42;;;;;;;11.88;7.82;;;;;;;23.90;70.08;100455.31;5010568;28;20115;-71